• Join FlightAware (Why Join?)
  • Login
  • US Flag 
07:24PM EST


 

Airport Tracker/Info


-or-


 

Live Flight TrackerFlight Track Log ✈ BOE5 ✈ 2013年 10月 07日 ✈ KBFI - KPAE

Flight Track Log - Related Links

Times and Time Zones

All times are in EDT time to prevent confusion due to time zone crossing. See the BOE5 flight status page for this flight to view local times or setup timezone preferences in your user account.

Time Position Orientation Groundspeed Altitude Reporting Facility
EDT Latitude Longitude Course Direction KTS MPH feet Rate Location/Type
01:45PM 47.5111 -122.2850 142° Southeast 206 237 1,500  Level Seattle Center
01:46PM 47.4539 -122.2181 142° Southeast 271 312 5,700 3,960 Climbing Seattle Center
01:47PM 47.3869 -122.2256 184° South 273 314 9,600 3,420 Climbing Seattle Center
01:47PM 47.3942 -122.2825 281° West 269 310 11,000 1,740 Climbing Seattle Center
01:48PM 47.3997 -122.4200 273° West 350 403 12,300 1,860 Climbing Seattle Center
01:49PM 47.3936 -122.5664 267° West 356 410 14,900 1,320 Climbing Seattle Center
01:50PM 47.3564 -122.6958 247° West 343 395 15,000  Climbing Seattle Center
01:51PM 47.3183 -122.8250 247° West 343 395 15,000  Level Seattle Center
01:52PM 47.2775 -122.9644 247° West 346 398 15,000  Level Seattle Center
01:54PM 47.2397 -123.0964 247° West 349 402 15,000  Level Seattle Center
01:55PM 47.2008 -123.2261 246° West 349 402 15,000  Level Seattle Center
01:56PM 47.1625 -123.3553 246° West 346 398 15,000  Level Seattle Center
01:57PM 47.1275 -123.4867 249° West 345 397 15,000  Level Seattle Center
01:58PM 47.0958 -123.6025 248° West 344 396 15,000  Level Seattle Center
01:59PM 47.0611 -123.7308 248° West 340 391 15,000  Level Seattle Center
02:00PM 47.0186 -123.8864 248° West 342 394 15,000  Level Seattle Center
02:01PM 47.0069 -124.0061 262° West 342 394 15,000  Level Seattle Center
02:02PM 47.0764 -124.0900 321° Northwest 342 394 15,000  Level Seattle Center
02:03PM 47.1633 -124.0261 27° Northeast 373 429 15,000  Level Seattle Center
02:04PM 47.2350 -123.8875 53° Northeast 385 443 15,000  Level Seattle Center
02:05PM 47.3075 -123.7697 48° Northeast 387 445 15,000  Level Seattle Center
02:06PM 47.3775 -123.6475 50° Northeast 389 448 15,000  Level Seattle Center
02:07PM 47.4619 -123.5458 39° Northeast 396 456 15,000  Level Seattle Center
02:08PM 47.5542 -123.4633 31° Northeast 389 448 15,000 -480 Level Seattle Center
02:09PM 47.6489 -123.3806 30° Northeast 394 453 14,100 -1,260 Descending Seattle Center
02:10PM 47.7417 -123.2981 31° Northeast 390 449 12,500 -1,620 Descending Seattle Center
02:11PM 47.8403 -123.2108 31° Northeast 396 456 11,100 -1,380 Descending Seattle Center
02:11PM 47.8372 -123.2128 203° Southwest 397 457 11,100 -1,260 Level Seattle Center
02:11PM 47.9164 -123.1417 31° Northeast 387 445 10,100 -1,020 Descending Seattle Center
02:12PM 47.9294 -123.1308 29° Northeast 389 448 10,100  Level Seattle Center
02:12PM 47.9981 -123.0694 31° Northeast 336 387 10,100  Level Seattle Center
02:13PM 48.0267 -123.0439 31° Northeast 340 391 10,100 -600 Level Seattle Center
02:14PM 48.0708 -123.0050 30° Northeast 292 336 9,500 -1,020 Descending Seattle Center
02:14PM 48.0972 -122.9794 33° Northeast 303 349 9,100 -1,320 Descending Seattle Center
02:15PM 48.1328 -122.9333 41° Northeast 292 336 8,200 -1,380 Descending Seattle Center
02:15PM 48.1361 -122.9239 62° Northeast 286 329 8,100 -2,100 Descending Seattle Center
02:15PM 48.1417 -122.8875 77° East 282 325 7,500 -1,860 Descending Seattle Center
02:15PM 48.1411 -122.8353 91° East 286 329 6,800 -1,500 Descending Seattle Center
02:16PM 48.1436 -122.7683 87° East 285 328 6,000 -1,320 Descending Seattle Center
02:16PM 48.1442 -122.7308 89° East 278 320 5,600 -1,020 Descending Seattle Center
02:17PM 48.1442 -122.6553 90° East 274 315 5,000 -540 Descending Seattle Center
02:17PM 48.1453 -122.6175 87° East 269 310 5,100  Climbing Seattle Center
02:18PM 48.1475 -122.5478 87° East 262 302 5,000 -300 Descending Seattle Center
02:18PM 48.1478 -122.5200 89° East 231 266 4,800 -840 Descending Seattle Center
02:19PM 48.1492 -122.4539 88° East 233 268 4,200 -720 Descending Seattle Center
02:19PM 48.1478 -122.4136 93° East 217 250 4,000 -840 Descending Seattle Center
02:20PM 48.1497 -122.3647 87° East 218 251 3,400 -840 Descending Seattle Center
02:20PM 48.1503 -122.3258 89° East 211 243 3,200 -420 Descending Seattle Center
02:21PM 48.1283 -122.2928 135° Southeast 208 239 3,000 -120 Descending Seattle Center
02:21PM 48.1081 -122.2897 174° South 181 208 3,100  Climbing Seattle Center
02:22PM 48.0772 -122.2903 181° South 180 207 3,000  Descending Seattle Center
02:22PM 48.0519 -122.2881 177° South 179 206 3,100 -300 Climbing Seattle Center
02:23PM 48.0292 -122.2881 180° South 174 200 2,700 -720 Descending Seattle Center
02:23PM 48.0072 -122.2864 177° South 162 186 2,400 -840 Descending Seattle Center
02:24PM 47.9861 -122.2869 181° South 154 177 1,900 -900 Descending Seattle Center
02:24PM 47.9650 -122.2867 179° South 141 162 1,500 -840 Descending Seattle Center
02:25PM 47.9478 -122.2867 180° South 139 160 1,100 -420 Descending Seattle Center
02:26PM 47.9044 -122.2861 180° South 137 158 800 -300 Descending Seattle Center
02:28PM 47.9070 -122.2816 180° South  Level Estimated